sensor_id;sensor_type;location;lat;lon;timestamp;pressure;altitude;pressure_sealevel;temperature;humidity
75913;BME280;64592;52.168;21.040;2022-10-23T00:03:45;100307.16;;;12.32;91.85
75913;BME280;64592;52.168;21.040;2022-10-23T00:08:47;100309.72;;;12.34;92.11
75913;BME280;64592;52.168;21.040;2022-10-23T00:13:52;100315.00;;;12.35;92.04
75913;BME280;64592;52.168;21.040;2022-10-23T00:18:54;100318.09;;;12.31;92.31
75913;BME280;64592;52.168;21.040;2022-10-23T00:23:56;100309.97;;;12.31;92.24
75913;BME280;64592;52.168;21.040;2022-10-23T00:28:59;100315.25;;;12.32;92.43
75913;BME280;64592;52.168;21.040;2022-10-23T00:34:01;100329.75;;;12.31;92.06
75913;BME280;64592;52.168;21.040;2022-10-23T00:39:04;100333.19;;;12.33;92.44
75913;BME280;64592;52.168;21.040;2022-10-23T00:44:09;100331.47;;;12.32;93.16
75913;BME280;64592;52.168;21.040;2022-10-23T00:49:31;100330.50;;;12.33;92.69
75913;BME280;64592;52.168;21.040;2022-10-23T00:54:35;100339.59;;;12.32;92.85
75913;BME280;64592;52.168;21.040;2022-10-23T00:59:39;100339.59;;;12.32;93.00
75913;BME280;64592;52.168;21.040;2022-10-23T01:04:41;100352.25;;;12.32;93.06
75913;BME280;64592;52.168;21.040;2022-10-23T01:09:48;100358.28;;;12.35;93.02
75913;BME280;64592;52.168;21.040;2022-10-23T01:15:00;100367.25;;;12.36;93.24
75913;BME280;64592;52.168;21.040;2022-10-23T01:20:18;100370.81;;;12.36;93.20
75913;BME280;64592;52.168;21.040;2022-10-23T01:25:30;100380.59;;;12.37;93.52
75913;BME280;64592;52.168;21.040;2022-10-23T01:30:42;100371.66;;;12.37;92.91
75913;BME280;64592;52.168;21.040;2022-10-23T01:35:48;100390.44;;;12.38;93.29
75913;BME280;64592;52.168;21.040;2022-10-23T01:40:55;100389.56;;;12.38;93.37
75913;BME280;64592;52.168;21.040;2022-10-23T01:46:05;100365.13;;;12.39;93.04
75913;BME280;64592;52.168;21.040;2022-10-23T01:51:09;100381.97;;;12.43;93.09
75913;BME280;64592;52.168;21.040;2022-10-23T01:56:17;100372.72;;;12.45;93.11
75913;BME280;64592;52.168;21.040;2022-10-23T02:01:23;100382.56;;;12.47;93.32
75913;BME280;64592;52.168;21.040;2022-10-23T02:06:27;100392.50;;;12.46;93.10
75913;BME280;64592;52.168;21.040;2022-10-23T02:11:30;100402.22;;;12.49;93.04
75913;BME280;64592;52.168;21.040;2022-10-23T02:16:39;100388.72;;;12.49;92.79
75913;BME280;64592;52.168;21.040;2022-10-23T02:21:49;100406.66;;;12.50;92.74
75913;BME280;64592;52.168;21.040;2022-10-23T02:26:52;100402.84;;;12.52;92.59
75913;BME280;64592;52.168;21.040;2022-10-23T02:31:57;100411.94;;;12.51;92.58
75913;BME280;64592;52.168;21.040;2022-10-23T02:36:59;100414.66;;;12.51;92.69
75913;BME280;64592;52.168;21.040;2022-10-23T02:42:05;100427.19;;;12.52;92.55
75913;BME280;64592;52.168;21.040;2022-10-23T02:47:20;100422.88;;;12.50;92.50
75913;BME280;64592;52.168;21.040;2022-10-23T02:52:30;100428.16;;;12.51;92.53
75913;BME280;64592;52.168;21.040;2022-10-23T02:57:36;100427.31;;;12.51;92.55
75913;BME280;64592;52.168;21.040;2022-10-23T03:02:44;100421.91;;;12.51;92.69
75913;BME280;64592;52.168;21.040;2022-10-23T03:07:47;100421.91;;;12.51;92.65
75913;BME280;64592;52.168;21.040;2022-10-23T03:12:49;100423.63;;;12.52;92.69
75913;BME280;64592;52.168;21.040;2022-10-23T03:17:52;100420.75;;;12.53;92.31
75913;BME280;64592;52.168;21.040;2022-10-23T03:22:54;100417.19;;;12.53;92.29
75913;BME280;64592;52.168;21.040;2022-10-23T03:27:56;100429.03;;;12.52;92.53
75913;BME280;64592;52.168;21.040;2022-10-23T03:32:59;100430.72;;;12.53;92.09
75913;BME280;64592;52.168;21.040;2022-10-23T03:38:01;100422.75;;;12.51;92.52
75913;BME280;64592;52.168;21.040;2022-10-23T03:43:02;100430.72;;;12.53;92.61
75913;BME280;64592;52.168;21.040;2022-10-23T03:48:06;100430.13;;;12.49;92.52
75913;BME280;64592;52.168;21.040;2022-10-23T03:53:07;100424.09;;;12.45;92.26
75913;BME280;64592;52.168;21.040;2022-10-23T03:58:10;100430.00;;;12.39;92.48
75913;BME280;64592;52.168;21.040;2022-10-23T04:03:13;100433.97;;;12.35;92.52
75913;BME280;64592;52.168;21.040;2022-10-23T04:08:14;100452.88;;;12.35;92.41
75913;BME280;64592;52.168;21.040;2022-10-23T04:13:16;100460.13;;;12.35;92.32
75913;BME280;64592;52.168;21.040;2022-10-23T04:18:19;100471.81;;;12.35;92.32
75913;BME280;64592;52.168;21.040;2022-10-23T04:23:21;100473.66;;;12.35;92.38
75913;BME280;64592;52.168;21.040;2022-10-23T04:28:22;100470.94;;;12.35;92.36
75913;BME280;64592;52.168;21.040;2022-10-23T04:33:26;100485.22;;;12.37;92.08
75913;BME280;64592;52.168;21.040;2022-10-23T04:38:28;100485.34;;;12.35;92.06
75913;BME280;64592;52.168;21.040;2022-10-23T04:43:29;100489.75;;;12.36;91.64
75913;BME280;64592;52.168;21.040;2022-10-23T04:48:32;100491.84;;;12.33;91.89
75913;BME280;64592;52.168;21.040;2022-10-23T04:53:34;100492.81;;;12.32;91.87
75913;BME280;64592;52.168;21.040;2022-10-23T04:58:38;100505.47;;;12.31;91.66
75913;BME280;64592;52.168;21.040;2022-10-23T05:03:41;100492.22;;;12.28;91.67
75913;BME280;64592;52.168;21.040;2022-10-23T05:08:43;100495.91;;;12.27;91.32
75913;BME280;64592;52.168;21.040;2022-10-23T05:13:45;100503.25;;;12.25;91.29
75913;BME280;64592;52.168;21.040;2022-10-23T05:18:48;100509.66;;;12.24;91.34
75913;BME280;64592;52.168;21.040;2022-10-23T05:23:50;100519.75;;;12.22;91.45
75913;BME280;64592;52.168;21.040;2022-10-23T05:28:52;100518.03;;;12.21;91.27
75913;BME280;64592;52.168;21.040;2022-10-23T05:33:55;100521.06;;;12.17;91.42
75913;BME280;64592;52.168;21.040;2022-10-23T05:38:58;100522.19;;;12.14;91.71
75913;BME280;64592;52.168;21.040;2022-10-23T05:43:59;100522.66;;;12.08;91.61
75913;BME280;64592;52.168;21.040;2022-10-23T05:49:02;100531.03;;;12.05;91.74
75913;BME280;64592;52.168;21.040;2022-10-23T05:54:05;100534.81;;;12.02;91.63
75913;BME280;64592;52.168;21.040;2022-10-23T05:59:08;100533.94;;;12.02;91.36
75913;BME280;64592;52.168;21.040;2022-10-23T06:04:11;100526.09;;;11.99;91.16
75913;BME280;64592;52.168;21.040;2022-10-23T06:09:13;100528.81;;;11.99;91.27
75913;BME280;64592;52.168;21.040;2022-10-23T06:14:15;100532.72;;;11.95;91.23
75913;BME280;64592;52.168;21.040;2022-10-23T06:19:18;100539.22;;;11.92;91.20
75913;BME280;64592;52.168;21.040;2022-10-23T06:24:20;100558.38;;;11.89;90.96
75913;BME280;64592;52.168;21.040;2022-10-23T06:29:22;100556.75;;;11.87;90.82
75913;BME280;64592;52.168;21.040;2022-10-23T06:34:25;100558.47;;;11.88;90.88
75913;BME280;64592;52.168;21.040;2022-10-23T06:39:27;100564.63;;;11.90;91.11
75913;BME280;64592;52.168;21.040;2022-10-23T06:44:29;100564.88;;;11.87;90.79
75913;BME280;64592;52.168;21.040;2022-10-23T06:49:32;100565.63;;;11.89;90.88
75913;BME280;64592;52.168;21.040;2022-10-23T06:54:33;100579.88;;;11.91;91.15
75913;BME280;64592;52.168;21.040;2022-10-23T06:59:35;100584.31;;;11.92;91.02
75913;BME280;64592;52.168;21.040;2022-10-23T07:04:38;100585.00;;;11.94;90.90
75913;BME280;64592;52.168;21.040;2022-10-23T07:09:40;100587.59;;;11.95;90.97
75913;BME280;64592;52.168;21.040;2022-10-23T07:14:42;100585.53;;;11.99;90.95
75913;BME280;64592;52.168;21.040;2022-10-23T07:19:46;100576.94;;;12.05;90.83
75913;BME280;64592;52.168;21.040;2022-10-23T07:24:48;100585.56;;;12.10;90.88
75913;BME280;64592;52.168;21.040;2022-10-23T07:29:49;100592.47;;;12.14;90.71
75913;BME280;64592;52.168;21.040;2022-10-23T07:34:53;100590.25;;;12.19;90.69
75913;BME280;64592;52.168;21.040;2022-10-23T07:39:54;100578.34;;;12.22;90.65
75913;BME280;64592;52.168;21.040;2022-10-23T07:44:56;100580.66;;;12.26;90.54
75913;BME280;64592;52.168;21.040;2022-10-23T07:49:59;100571.22;;;12.32;90.61
75913;BME280;64592;52.168;21.040;2022-10-23T07:55:01;100572.56;;;12.37;90.75
75913;BME280;64592;52.168;21.040;2022-10-23T08:00:04;100578.47;;;12.42;90.27
75913;BME280;64592;52.168;21.040;2022-10-23T08:05:08;100569.88;;;12.49;90.22
75913;BME280;64592;52.168;21.040;2022-10-23T08:10:10;100565.47;;;12.59;90.10
75913;BME280;64592;52.168;21.040;2022-10-23T08:15:11;100571.94;;;12.67;89.75
75913;BME280;64592;52.168;21.040;2022-10-23T08:20:15;100575.63;;;12.77;89.62
75913;BME280;64592;52.168;21.040;2022-10-23T08:25:16;100582.28;;;12.84;89.16
75913;BME280;64592;52.168;21.040;2022-10-23T08:30:21;100585.44;;;12.90;89.12
75913;BME280;64592;52.168;21.040;2022-10-23T08:35:24;100583.38;;;12.93;89.12
75913;BME280;64592;52.168;21.040;2022-10-23T08:40:26;100584.13;;;12.95;89.43
75913;BME280;64592;52.168;21.040;2022-10-23T08:45:30;100592.81;;;12.99;89.61
75913;BME280;64592;52.168;21.040;2022-10-23T08:50:39;100598.88;;;13.02;89.33
75913;BME280;64592;52.168;21.040;2022-10-23T08:55:44;100590.34;;;13.07;89.60
75913;BME280;64592;52.168;21.040;2022-10-23T09:00:48;100595.19;;;13.14;89.43
75913;BME280;64592;52.168;21.040;2022-10-23T09:06:03;100597.50;;;13.19;89.25
75913;BME280;64592;52.168;21.040;2022-10-23T09:11:13;100597.88;;;13.26;89.50
75913;BME280;64592;52.168;21.040;2022-10-23T09:16:24;100587.75;;;13.28;89.51
75913;BME280;64592;52.168;21.040;2022-10-23T09:21:34;100589.97;;;13.34;89.63
75913;BME280;64592;52.168;21.040;2022-10-23T09:26:36;100593.75;;;13.42;89.18
75913;BME280;64592;52.168;21.040;2022-10-23T09:31:47;100600.00;;;13.54;88.70
75913;BME280;64592;52.168;21.040;2022-10-23T09:36:52;100600.47;;;13.59;88.16
75913;BME280;64592;52.168;21.040;2022-10-23T09:41:55;100605.63;;;13.62;88.40
75913;BME280;64592;52.168;21.040;2022-10-23T09:46:59;100596.00;;;13.69;88.18
75913;BME280;64592;52.168;21.040;2022-10-23T09:52:04;100607.06;;;13.77;87.82
75913;BME280;64592;52.168;21.040;2022-10-23T09:57:22;100605.06;;;13.79;87.38
75913;BME280;64592;52.168;21.040;2022-10-23T10:02:27;100593.97;;;13.82;86.90
75913;BME280;64592;52.168;21.040;2022-10-23T10:07:30;100595.28;;;13.88;86.43
75913;BME280;64592;52.168;21.040;2022-10-23T10:12:44;100588.47;;;13.93;86.42
75913;BME280;64592;52.168;21.040;2022-10-23T10:18:01;100584.53;;;13.97;86.21
75913;BME280;64592;52.168;21.040;2022-10-23T10:23:13;100584.84;;;14.04;86.35
75913;BME280;64592;52.168;21.040;2022-10-23T10:28:33;100594.03;;;14.13;85.45
75913;BME280;64592;52.168;21.040;2022-10-23T10:33:48;100595.47;;;14.17;85.41
75913;BME280;64592;52.168;21.040;2022-10-23T10:38:59;100594.63;;;14.16;85.67
75913;BME280;64592;52.168;21.040;2022-10-23T10:44:18;100600.91;;;14.17;85.41
75913;BME280;64592;52.168;21.040;2022-10-23T10:49:27;100588.09;;;14.19;85.00
75913;BME280;64592;52.168;21.040;2022-10-23T10:54:41;100580.69;;;14.21;84.67
75913;BME280;64592;52.168;21.040;2022-10-23T10:59:50;100585.13;;;14.22;84.91
75913;BME280;64592;52.168;21.040;2022-10-23T11:04:58;100580.94;;;14.18;84.74
75913;BME280;64592;52.168;21.040;2022-10-23T11:10:14;100584.63;;;14.17;84.63
75913;BME280;64592;52.168;21.040;2022-10-23T11:15:21;100588.63;;;14.13;84.73
75913;BME280;64592;52.168;21.040;2022-10-23T11:20:37;100585.47;;;14.08;84.20
75913;BME280;64592;52.168;21.040;2022-10-23T11:25:57;100581.28;;;14.04;83.78
75913;BME280;64592;52.168;21.040;2022-10-23T11:31:10;100586.69;;;14.04;83.84
75913;BME280;64592;52.168;21.040;2022-10-23T11:36:18;100577.44;;;14.06;84.13
75913;BME280;64592;52.168;21.040;2022-10-23T11:41:24;100561.88;;;14.08;83.60
75913;BME280;64592;52.168;21.040;2022-10-23T11:46:33;100563.22;;;14.14;84.31
75913;BME280;64592;52.168;21.040;2022-10-23T11:51:36;100555.28;;;14.22;84.26
75913;BME280;64592;52.168;21.040;2022-10-23T11:56:50;100570.72;;;14.31;83.52
75913;BME280;64592;52.168;21.040;2022-10-23T12:01:54;100561.59;;;14.32;83.58
75913;BME280;64592;52.168;21.040;2022-10-23T12:06:59;100539.53;;;14.36;83.13
75913;BME280;64592;52.168;21.040;2022-10-23T12:12:14;100545.69;;;14.38;83.30
75913;BME280;64592;52.168;21.040;2022-10-23T12:17:32;100533.84;;;14.40;82.68
75913;BME280;64592;52.168;21.040;2022-10-23T12:22:40;100532.59;;;14.44;82.78
75913;BME280;64592;52.168;21.040;2022-10-23T12:27:47;100526.31;;;14.43;82.51
75913;BME280;64592;52.168;21.040;2022-10-23T12:33:10;100529.47;;;14.48;82.55
75913;BME280;64592;52.168;21.040;2022-10-23T12:38:15;100519.34;;;14.50;82.87
75913;BME280;64592;52.168;21.040;2022-10-23T12:43:28;100536.47;;;14.51;82.40
75913;BME280;64592;52.168;21.040;2022-10-23T12:48:32;100536.34;;;14.52;81.85
75913;BME280;64592;52.168;21.040;2022-10-23T12:53:34;100540.91;;;14.52;82.28
75913;BME280;64592;52.168;21.040;2022-10-23T12:58:44;100542.75;;;14.51;81.36
75913;BME280;64592;52.168;21.040;2022-10-23T13:03:48;100545.75;;;14.48;80.99
75913;BME280;64592;52.168;21.040;2022-10-23T13:08:50;100543.75;;;14.50;81.58
75913;BME280;64592;52.168;21.040;2022-10-23T13:13:53;100540.31;;;14.48;81.81
75913;BME280;64592;52.168;21.040;2022-10-23T13:18:55;100547.59;;;14.48;81.73
75913;BME280;64592;52.168;21.040;2022-10-23T13:23:56;100545.47;;;14.51;81.66
75913;BME280;64592;52.168;21.040;2022-10-23T13:29:00;100534.34;;;14.54;81.63
75913;BME280;64592;52.168;21.040;2022-10-23T13:34:16;100539.22;;;14.60;81.98
75913;BME280;64592;52.168;21.040;2022-10-23T13:39:22;100543.38;;;14.64;81.68
75913;BME280;64592;52.168;21.040;2022-10-23T13:44:26;100544.13;;;14.66;82.12
75913;BME280;64592;52.168;21.040;2022-10-23T13:49:28;100539.94;;;14.62;82.48
75913;BME280;64592;52.168;21.040;2022-10-23T13:54:30;100536.66;;;14.59;82.72
75913;BME280;64592;52.168;21.040;2022-10-23T13:59:33;100545.06;;;14.56;82.48
75913;BME280;64592;52.168;21.040;2022-10-23T14:04:34;100536.06;;;14.55;82.29
75913;BME280;64592;52.168;21.040;2022-10-23T14:09:36;100535.63;;;14.50;82.48
75913;BME280;64592;52.168;21.040;2022-10-23T14:14:39;100529.47;;;14.48;82.92
75913;BME280;64592;52.168;21.040;2022-10-23T14:19:41;100534.16;;;14.46;83.22
75913;BME280;64592;52.168;21.040;2022-10-23T14:24:43;100530.75;;;14.44;83.24
75913;BME280;64592;52.168;21.040;2022-10-23T14:29:46;100540.88;;;14.42;83.73
75913;BME280;64592;52.168;21.040;2022-10-23T14:34:50;100547.28;;;14.41;83.79
75913;BME280;64592;52.168;21.040;2022-10-23T14:39:52;100551.09;;;14.38;83.50
75913;BME280;64592;52.168;21.040;2022-10-23T14:44:55;100540.50;;;14.35;83.05
75913;BME280;64592;52.168;21.040;2022-10-23T14:49:57;100536.22;;;14.33;82.94
75913;BME280;64592;52.168;21.040;2022-10-23T14:54:58;100549.03;;;14.31;83.36
75913;BME280;64592;52.168;21.040;2022-10-23T15:00:02;100536.50;;;14.30;82.15
75913;BME280;64592;52.168;21.040;2022-10-23T15:05:05;100531.59;;;14.24;80.87
75913;BME280;64592;52.168;21.040;2022-10-23T15:10:07;100530.88;;;14.22;81.57
75913;BME280;64592;52.168;21.040;2022-10-23T15:15:11;100532.00;;;14.19;81.70
75913;BME280;64592;52.168;21.040;2022-10-23T15:20:12;100527.00;;;14.15;81.34
75913;BME280;64592;52.168;21.040;2022-10-23T15:25:14;100536.13;;;14.14;81.36
75913;BME280;64592;52.168;21.040;2022-10-23T15:30:17;100538.09;;;14.12;81.63
75913;BME280;64592;52.168;21.040;2022-10-23T15:35:19;100545.50;;;14.10;81.14
75913;BME280;64592;52.168;21.040;2022-10-23T15:40:21;100542.09;;;14.08;81.14
75913;BME280;64592;52.168;21.040;2022-10-23T15:45:24;100542.34;;;14.05;81.75
75913;BME280;64592;52.168;21.040;2022-10-23T15:50:26;100547.03;;;14.03;82.04
75913;BME280;64592;52.168;21.040;2022-10-23T15:55:28;100541.88;;;13.99;81.91
75913;BME280;64592;52.168;21.040;2022-10-23T16:00:31;100557.41;;;13.97;82.04
75913;BME280;64592;52.168;21.040;2022-10-23T16:05:35;100553.72;;;13.98;82.46
75913;BME280;64592;52.168;21.040;2022-10-23T16:10:38;100540.53;;;13.94;81.88
75913;BME280;64592;52.168;21.040;2022-10-23T16:15:41;100539.69;;;13.93;82.46
75913;BME280;64592;52.168;21.040;2022-10-23T16:20:43;100551.66;;;13.91;81.90
75913;BME280;64592;52.168;21.040;2022-10-23T16:25:45;100541.06;;;13.88;82.08
75913;BME280;64592;52.168;21.040;2022-10-23T16:30:48;100556.47;;;13.87;82.05
75913;BME280;64592;52.168;21.040;2022-10-23T16:35:49;100552.91;;;13.87;81.78
75913;BME280;64592;52.168;21.040;2022-10-23T16:40:51;100555.91;;;13.84;81.88
75913;BME280;64592;52.168;21.040;2022-10-23T16:46:02;100564.16;;;13.82;82.00
75913;BME280;64592;52.168;21.040;2022-10-23T16:51:05;100565.25;;;13.80;82.22
75913;BME280;64592;52.168;21.040;2022-10-23T16:56:09;100571.81;;;13.77;82.43
75913;BME280;64592;52.168;21.040;2022-10-23T17:01:14;100579.34;;;13.74;82.67
75913;BME280;64592;52.168;21.040;2022-10-23T17:06:18;100583.03;;;13.73;82.84
75913;BME280;64592;52.168;21.040;2022-10-23T17:11:21;100576.06;;;13.70;82.78
75913;BME280;64592;52.168;21.040;2022-10-23T17:16:27;100575.31;;;13.68;83.08
75913;BME280;64592;52.168;21.040;2022-10-23T17:21:31;100591.81;;;13.65;83.23
75913;BME280;64592;52.168;21.040;2022-10-23T17:26:33;100585.19;;;13.58;83.19
75913;BME280;64592;52.168;21.040;2022-10-23T17:31:38;100583.00;;;13.52;83.67
75913;BME280;64592;52.168;21.040;2022-10-23T17:36:42;100590.38;;;13.50;83.94
75913;BME280;64592;52.168;21.040;2022-10-23T17:41:44;100584.38;;;13.46;84.15
75913;BME280;64592;52.168;21.040;2022-10-23T17:46:50;100586.47;;;13.43;84.30
75913;BME280;64592;52.168;21.040;2022-10-23T17:51:54;100577.66;;;13.41;84.24
75913;BME280;64592;52.168;21.040;2022-10-23T17:56:56;100579.63;;;13.39;84.34
75913;BME280;64592;52.168;21.040;2022-10-23T18:01:59;100579.84;;;13.36;84.34
75913;BME280;64592;52.168;21.040;2022-10-23T18:07:01;100571.16;;;13.32;84.66
75913;BME280;64592;52.168;21.040;2022-10-23T18:12:03;100573.97;;;13.31;84.53
75913;BME280;64592;52.168;21.040;2022-10-23T18:17:06;100569.94;;;13.25;85.17
75913;BME280;64592;52.168;21.040;2022-10-23T18:22:07;100575.47;;;13.24;85.26
75913;BME280;64592;52.168;21.040;2022-10-23T18:27:09;100570.41;;;13.19;85.37
75913;BME280;64592;52.168;21.040;2022-10-23T18:32:12;100561.84;;;13.14;85.29
75913;BME280;64592;52.168;21.040;2022-10-23T18:37:14;100567.59;;;13.09;85.62
75913;BME280;64592;52.168;21.040;2022-10-23T18:42:15;100577.94;;;13.04;85.62
75913;BME280;64592;52.168;21.040;2022-10-23T18:47:18;100588.41;;;12.98;86.53
75913;BME280;64592;52.168;21.040;2022-10-23T18:52:20;100585.22;;;12.93;86.53
75913;BME280;64592;52.168;21.040;2022-10-23T18:57:22;100581.91;;;12.89;86.37
75913;BME280;64592;52.168;21.040;2022-10-23T19:02:25;100566.16;;;12.83;86.41
75913;BME280;64592;52.168;21.040;2022-10-23T19:07:27;100571.22;;;12.76;86.56
75913;BME280;64592;52.168;21.040;2022-10-23T19:12:28;100571.81;;;12.69;87.15
75913;BME280;64592;52.168;21.040;2022-10-23T19:17:32;100576.00;;;12.62;87.49
75913;BME280;64592;52.168;21.040;2022-10-23T19:22:34;100579.97;;;12.58;87.64
75913;BME280;64592;52.168;21.040;2022-10-23T19:27:41;100567.81;;;12.52;87.88
75913;BME280;64592;52.168;21.040;2022-10-23T19:32:45;100566.19;;;12.50;87.64
75913;BME280;64592;52.168;21.040;2022-10-23T19:37:47;100567.56;;;12.44;87.83
75913;BME280;64592;52.168;21.040;2022-10-23T19:42:49;100569.84;;;12.37;88.03
75913;BME280;64592;52.168;21.040;2022-10-23T19:47:52;100556.13;;;12.29;88.35
75913;BME280;64592;52.168;21.040;2022-10-23T19:52:54;100559.03;;;12.26;88.27
75913;BME280;64592;52.168;21.040;2022-10-23T19:57:55;100555.72;;;12.23;88.47
75913;BME280;64592;52.168;21.040;2022-10-23T20:02:58;100547.00;;;12.19;88.32
75913;BME280;64592;52.168;21.040;2022-10-23T20:08:00;100544.41;;;12.18;88.27
75913;BME280;64592;52.168;21.040;2022-10-23T20:13:02;100552.53;;;12.18;88.42
75913;BME280;64592;52.168;21.040;2022-10-23T20:18:05;100545.53;;;12.15;88.57
75913;BME280;64592;52.168;21.040;2022-10-23T20:23:07;100544.03;;;12.11;88.28
75913;BME280;64592;52.168;21.040;2022-10-23T20:28:09;100540.75;;;12.08;88.66
75913;BME280;64592;52.168;21.040;2022-10-23T20:33:12;100546.47;;;12.03;88.73
75913;BME280;64592;52.168;21.040;2022-10-23T20:38:13;100542.31;;;11.99;88.32
75913;BME280;64592;52.168;21.040;2022-10-23T20:43:15;100528.44;;;11.92;86.74
75913;BME280;64592;52.168;21.040;2022-10-23T20:48:18;100528.75;;;11.77;85.99
75913;BME280;64592;52.168;21.040;2022-10-23T20:53:20;100535.69;;;11.68;87.17
75913;BME280;64592;52.168;21.040;2022-10-23T20:58:22;100545.84;;;11.64;88.38
75913;BME280;64592;52.168;21.040;2022-10-23T21:03:25;100523.53;;;11.62;89.09
75913;BME280;64592;52.168;21.040;2022-10-23T21:08:27;100525.59;;;11.59;88.70
75913;BME280;64592;52.168;21.040;2022-10-23T21:13:28;100515.88;;;11.56;89.01
75913;BME280;64592;52.168;21.040;2022-10-23T21:18:31;100521.28;;;11.56;89.11
75913;BME280;64592;52.168;21.040;2022-10-23T21:23:34;100517.84;;;11.54;88.80
75913;BME280;64592;52.168;21.040;2022-10-23T21:28:36;100524.47;;;11.50;88.75
75913;BME280;64592;52.168;21.040;2022-10-23T21:33:40;100525.69;;;11.46;89.17
75913;BME280;64592;52.168;21.040;2022-10-23T21:38:43;100514.88;;;11.46;88.88
75913;BME280;64592;52.168;21.040;2022-10-23T21:43:45;100519.53;;;11.44;89.01
75913;BME280;64592;52.168;21.040;2022-10-23T21:48:48;100520.97;;;11.37;89.61
75913;BME280;64592;52.168;21.040;2022-10-23T21:53:52;100517.78;;;11.32;89.85
75913;BME280;64592;52.168;21.040;2022-10-23T21:58:54;100505.47;;;11.28;89.74
75913;BME280;64592;52.168;21.040;2022-10-23T22:03:57;100514.69;;;11.25;90.07
75913;BME280;64592;52.168;21.040;2022-10-23T22:08:59;100514.81;;;11.24;90.39
75913;BME280;64592;52.168;21.040;2022-10-23T22:14:02;100512.09;;;11.24;90.25
75913;BME280;64592;52.168;21.040;2022-10-23T22:19:05;100517.38;;;11.25;90.95
75913;BME280;64592;52.168;21.040;2022-10-23T22:24:07;100523.41;;;11.29;90.60
75913;BME280;64592;52.168;21.040;2022-10-23T22:29:11;100517.03;;;11.30;90.74
75913;BME280;64592;52.168;21.040;2022-10-23T22:34:18;100517.78;;;11.32;90.65
75913;BME280;64592;52.168;21.040;2022-10-23T22:39:20;100515.09;;;11.32;90.19
75913;BME280;64592;52.168;21.040;2022-10-23T22:44:25;100513.34;;;11.31;90.57
75913;BME280;64592;52.168;21.040;2022-10-23T22:49:28;100495.31;;;11.32;90.53
75913;BME280;64592;52.168;21.040;2022-10-23T22:54:30;100501.81;;;11.29;90.53
75913;BME280;64592;52.168;21.040;2022-10-23T22:59:32;100502.66;;;11.29;90.49
75913;BME280;64592;52.168;21.040;2022-10-23T23:04:35;100498.13;;;11.30;90.41
75913;BME280;64592;52.168;21.040;2022-10-23T23:09:40;100494.56;;;11.29;90.22
75913;BME280;64592;52.168;21.040;2022-10-23T23:14:42;100490.25;;;11.27;90.64
75913;BME280;64592;52.168;21.040;2022-10-23T23:19:45;100489.41;;;11.26;90.50
75913;BME280;64592;52.168;21.040;2022-10-23T23:24:47;100487.44;;;11.28;90.60
75913;BME280;64592;52.168;21.040;2022-10-23T23:29:48;100480.31;;;11.27;90.24
75913;BME280;64592;52.168;21.040;2022-10-23T23:34:51;100489.41;;;11.26;90.32
75913;BME280;64592;52.168;21.040;2022-10-23T23:39:53;100475.06;;;11.26;89.92
75913;BME280;64592;52.168;21.040;2022-10-23T23:44:55;100471.09;;;11.19;89.52
75913;BME280;64592;52.168;21.040;2022-10-23T23:49:58;100474.25;;;11.13;88.67
75913;BME280;64592;52.168;21.040;2022-10-23T23:55:00;100481.00;;;11.07;88.84
